createdAt,value
2017-09-02T00:01:41.141Z,9.00
2017-09-02T00:04:08.670Z,10.37
2017-09-02T00:06:36.239Z,9.37
2017-09-02T00:09:03.773Z,9.60
2017-09-02T00:11:31.338Z,10.70
2017-09-02T00:13:59.427Z,11.10
2017-09-02T00:16:26.960Z,11.07
2017-09-02T00:18:54.493Z,11.60
2017-09-02T00:21:22.038Z,10.30
2017-09-02T00:23:49.580Z,10.97
2017-09-02T00:26:17.131Z,11.98
2017-09-02T00:28:44.663Z,9.75
2017-09-02T00:31:12.234Z,9.97
2017-09-02T00:33:39.765Z,10.00
2017-09-02T00:36:07.303Z,9.93
2017-09-02T00:38:34.869Z,10.00
2017-09-02T00:41:02.395Z,10.67
2017-09-02T00:43:29.936Z,10.40
2017-09-02T00:45:57.463Z,10.90
2017-09-02T00:48:25.019Z,10.60
2017-09-02T00:50:52.544Z,10.67
2017-09-02T00:53:20.093Z,11.30
2017-09-02T00:55:47.633Z,9.47
2017-09-02T00:58:15.182Z,8.60
2017-09-02T01:00:42.713Z,10.80
2017-09-02T01:03:10.241Z,9.57
2017-09-02T01:05:37.787Z,8.80
2017-09-02T01:08:05.311Z,10.70
2017-09-02T01:10:32.860Z,10.47
2017-09-02T01:13:01.253Z,11.90
2017-09-02T01:15:29.536Z,10.50
2017-09-02T01:17:57.073Z,10.70
2017-09-02T01:20:24.663Z,11.33
2017-09-02T01:22:52.204Z,12.23
2017-09-02T01:25:19.759Z,11.80
2017-09-02T01:27:47.297Z,13.33
2017-09-02T01:30:20.440Z,12.40
2017-09-02T01:32:47.977Z,11.40
2017-09-02T01:35:15.518Z,11.40
2017-09-02T01:37:43.077Z,11.20
2017-09-02T01:40:10.609Z,12.43
2017-09-02T01:42:38.165Z,12.17
2017-09-02T01:45:05.700Z,12.87
2017-09-02T01:47:33.253Z,12.40
2017-09-02T01:50:02.112Z,13.93
2017-09-02T01:52:30.929Z,14.73
2017-09-02T01:54:58.489Z,15.80
2017-09-02T01:57:26.046Z,15.73
2017-09-02T01:59:53.610Z,18.00
2017-09-02T02:02:21.147Z,17.75
2017-09-02T02:04:48.709Z,23.17
2017-09-02T02:07:16.253Z,21.80
2017-09-02T02:09:43.805Z,26.98
2017-09-02T02:12:11.342Z,33.55
2017-09-02T02:14:38.899Z,34.85
2017-09-02T02:17:06.433Z,37.25
2017-09-02T02:19:33.981Z,39.47
2017-09-02T02:22:01.545Z,37.95
2017-09-02T02:24:29.494Z,36.83
2017-09-02T02:26:57.047Z,37.10
2017-09-02T02:29:24.592Z,35.47
2017-09-02T02:31:52.159Z,35.40
2017-09-02T02:34:19.693Z,36.10
2017-09-02T02:36:47.256Z,34.77
2017-09-02T02:39:14.809Z,36.80
2017-09-02T02:41:42.360Z,37.90
2017-09-02T02:44:09.983Z,37.90
2017-09-02T02:46:37.537Z,37.87
2017-09-02T02:49:05.087Z,36.80
2017-09-02T02:51:33.021Z,36.22
2017-09-02T02:54:01.181Z,37.37
2017-09-02T02:56:28.739Z,37.37
2017-09-02T02:58:57.169Z,36.50
2017-09-02T03:01:24.706Z,35.80
2017-09-02T03:03:52.257Z,34.50
2017-09-02T03:06:19.785Z,30.80
2017-09-02T03:08:47.365Z,31.50
2017-09-02T03:11:14.937Z,30.80
2017-09-02T03:13:42.491Z,28.73
2017-09-02T03:16:10.039Z,28.25
2017-09-02T03:18:37.589Z,25.85
2017-09-02T03:21:05.149Z,25.30
2017-09-02T03:23:32.681Z,25.67
2017-09-02T03:26:00.956Z,21.03
2017-09-02T03:28:28.493Z,18.00
2017-09-02T03:30:56.052Z,17.60
2017-09-02T03:33:23.583Z,15.68
2017-09-02T03:35:51.150Z,14.53
2017-09-02T03:38:18.699Z,11.80
2017-09-02T03:40:46.269Z,12.73
2017-09-02T03:43:13.805Z,10.52
2017-09-02T03:45:41.343Z,9.80
2017-09-02T03:48:08.901Z,9.82
2017-09-02T03:50:36.433Z,9.93
2017-09-02T03:53:04.013Z,9.45
2017-09-02T03:55:31.548Z,9.60
2017-09-02T03:57:59.525Z,9.07
2017-09-02T04:00:27.065Z,9.32
2017-09-02T04:02:54.631Z,10.32
2017-09-02T04:05:22.185Z,10.87
2017-09-02T04:07:49.725Z,8.95
2017-09-02T04:10:17.281Z,9.98
2017-09-02T04:12:44.797Z,10.33
2017-09-02T04:15:12.351Z,10.80
2017-09-02T04:17:39.880Z,11.20
2017-09-02T04:20:07.436Z,11.60
2017-09-02T04:22:34.965Z,12.43
2017-09-02T04:25:02.530Z,11.73
2017-09-02T04:27:30.511Z,11.73
2017-09-02T04:29:58.063Z,13.40
2017-09-02T04:32:25.600Z,12.73
2017-09-02T04:34:53.152Z,13.07
2017-09-02T04:37:20.706Z,13.80
2017-09-02T04:39:48.305Z,12.43
2017-09-02T04:42:16.905Z,14.87
2017-09-02T04:44:44.440Z,12.73
2017-09-02T04:47:11.997Z,12.40
2017-09-02T04:49:39.557Z,14.57
2017-09-02T04:52:07.242Z,12.50
2017-09-02T04:54:34.796Z,12.82
2017-09-02T04:57:02.361Z,12.18
2017-09-02T04:59:30.953Z,12.02
2017-09-02T05:01:58.522Z,9.75
2017-09-02T05:04:26.058Z,9.18
2017-09-02T05:06:53.619Z,9.32
2017-09-02T05:09:21.166Z,10.38
2017-09-02T05:11:48.696Z,9.82
2017-09-02T05:14:16.290Z,9.52
2017-09-02T05:16:43.826Z,9.18
2017-09-02T05:19:11.359Z,8.45
2017-09-02T05:21:38.925Z,10.13
2017-09-02T05:24:06.481Z,10.40
2017-09-02T05:26:34.008Z,10.10
2017-09-02T05:29:01.574Z,10.18
2017-09-02T05:31:29.565Z,9.02
2017-09-02T05:33:57.126Z,10.00
2017-09-02T05:36:24.648Z,10.07
2017-09-02T05:38:52.217Z,11.00
2017-09-02T05:41:19.759Z,11.47
2017-09-02T05:43:47.309Z,11.50
2017-09-02T05:46:14.859Z,11.73
2017-09-02T05:48:42.387Z,12.05
2017-09-02T05:51:09.963Z,11.73
2017-09-02T05:53:37.509Z,12.75
2017-09-02T05:56:05.077Z,12.93
2017-09-02T05:58:32.643Z,12.48
2017-09-02T06:01:00.187Z,11.50
2017-09-02T06:03:27.715Z,10.80
2017-09-02T06:05:55.290Z,10.70
2017-09-02T06:08:22.829Z,10.70
2017-09-02T06:10:50.359Z,9.80
2017-09-02T06:13:17.944Z,10.00
2017-09-02T06:15:45.479Z,9.13
2017-09-02T06:18:13.029Z,10.13
2017-09-02T06:20:40.560Z,8.93
2017-09-02T06:23:08.154Z,9.05
2017-09-02T06:25:35.700Z,7.37
2017-09-02T06:28:03.286Z,7.17
2017-09-02T06:30:31.900Z,7.30
2017-09-02T06:33:00.653Z,7.00
2017-09-02T06:35:28.191Z,7.07
2017-09-02T06:37:55.725Z,6.53
2017-09-02T06:40:23.276Z,7.63
2017-09-02T06:42:50.817Z,7.07
2017-09-02T06:45:18.367Z,7.30
2017-09-02T06:47:45.912Z,8.18
2017-09-02T06:50:13.468Z,8.20
2017-09-02T06:52:41.031Z,8.50
2017-09-02T06:55:08.562Z,8.43
2017-09-02T06:57:36.091Z,7.87
2017-09-02T07:00:03.621Z,8.03
2017-09-02T07:02:32.307Z,8.00
2017-09-02T07:05:00.849Z,7.87
2017-09-02T07:07:28.439Z,7.67
2017-09-02T07:09:55.988Z,7.70
2017-09-02T07:12:23.520Z,7.93
2017-09-02T07:14:51.070Z,10.00
2017-09-02T07:17:18.592Z,9.83
2017-09-02T07:19:49.694Z,10.70
2017-09-02T07:22:17.312Z,12.27
2017-09-02T07:24:44.861Z,13.60
2017-09-02T07:27:12.397Z,12.50
2017-09-02T07:29:39.969Z,13.47
2017-09-02T07:32:07.533Z,13.60
2017-09-02T07:34:35.087Z,16.13
2017-09-02T07:37:02.637Z,17.00
2017-09-02T07:39:30.539Z,17.07
2017-09-02T07:41:59.163Z,17.63
2017-09-02T07:44:26.689Z,17.20
2017-09-02T07:46:54.236Z,19.03
2017-09-02T07:49:21.772Z,19.37
2017-09-02T07:51:49.339Z,17.00
2017-09-02T07:54:16.885Z,15.70
2017-09-02T07:56:44.427Z,14.27
2017-09-02T07:59:11.958Z,15.37
2017-09-02T08:01:39.515Z,14.67
2017-09-02T08:04:07.071Z,11.23
2017-09-02T08:06:34.613Z,12.10
2017-09-02T08:09:02.168Z,11.60
2017-09-02T08:11:30.481Z,11.10
2017-09-02T08:13:58.043Z,9.90
2017-09-02T08:16:25.563Z,10.43
2017-09-02T08:18:53.121Z,10.63
2017-09-02T08:21:20.653Z,11.60
2017-09-02T08:23:48.240Z,10.50
2017-09-02T08:26:15.780Z,10.20
2017-09-02T08:28:43.322Z,11.27
2017-09-02T08:31:10.869Z,9.40
2017-09-02T08:33:38.436Z,9.40
2017-09-02T08:36:06.005Z,9.50
2017-09-02T08:38:33.528Z,9.07
2017-09-02T08:41:01.726Z,9.30
2017-09-02T08:43:29.720Z,9.60
2017-09-02T08:45:57.278Z,10.30
2017-09-02T08:48:24.810Z,10.60
2017-09-02T08:50:52.370Z,11.27
2017-09-02T08:53:19.906Z,9.57
2017-09-02T08:55:47.465Z,10.30
2017-09-02T08:58:15.021Z,9.60
2017-09-02T09:00:42.562Z,10.37
2017-09-02T09:03:10.123Z,9.73
2017-09-02T09:05:37.677Z,9.67
2017-09-02T09:08:05.276Z,8.50
2017-09-02T09:10:32.842Z,9.73
2017-09-02T09:13:01.624Z,10.13
2017-09-02T09:15:29.696Z,8.87
2017-09-02T09:17:57.241Z,9.07
2017-09-02T09:20:24.773Z,8.47
2017-09-02T09:22:52.310Z,7.00
2017-09-02T09:25:19.845Z,7.10
2017-09-02T09:27:47.405Z,6.57
2017-09-02T09:30:14.965Z,7.27
2017-09-02T09:32:42.509Z,7.03
2017-09-02T09:35:10.048Z,7.27
2017-09-02T09:37:37.574Z,7.50
2017-09-02T09:40:05.149Z,7.00
2017-09-02T09:42:32.706Z,7.20
2017-09-02T09:45:00.285Z,7.80
2017-09-02T09:47:27.818Z,6.80
2017-09-02T09:49:55.409Z,6.57
2017-09-02T09:52:22.948Z,6.67
2017-09-02T09:54:50.522Z,6.83
2017-09-02T09:57:18.061Z,7.67
2017-09-02T09:59:45.594Z,7.33
2017-09-02T10:02:13.137Z,7.60
2017-09-02T10:04:40.665Z,7.30
2017-09-02T10:07:08.236Z,6.93
2017-09-02T10:09:35.766Z,7.30
2017-09-02T10:12:03.314Z,5.93
2017-09-02T10:14:31.810Z,7.00
2017-09-02T10:16:59.835Z,6.20
2017-09-02T10:19:27.453Z,8.57
2017-09-02T10:21:55.088Z,8.07
2017-09-02T10:24:22.621Z,7.60
2017-09-02T10:26:50.169Z,7.80
2017-09-02T10:29:17.720Z,7.90
2017-09-02T10:31:45.264Z,8.10
2017-09-02T10:34:12.846Z,9.00
2017-09-02T10:36:40.401Z,9.10
2017-09-02T10:39:07.967Z,10.33
2017-09-02T10:41:35.554Z,10.37
2017-09-02T10:44:03.113Z,8.93
2017-09-02T10:46:31.872Z,10.20
2017-09-02T10:49:00.140Z,11.53
2017-09-02T10:51:27.700Z,11.47
2017-09-02T10:53:55.272Z,12.07
2017-09-02T10:56:22.824Z,9.60
2017-09-02T10:58:50.557Z,10.93
2017-09-02T11:01:18.103Z,11.13
2017-09-02T11:03:45.639Z,11.67
2017-09-02T11:06:14.014Z,10.90
2017-09-02T11:08:41.568Z,8.67
2017-09-02T11:11:09.127Z,8.87
2017-09-02T11:13:36.730Z,9.10
2017-09-02T11:16:04.333Z,9.47
2017-09-02T11:18:32.263Z,8.57
2017-09-02T11:21:00.879Z,10.10
2017-09-02T11:23:28.444Z,9.50
2017-09-02T11:25:55.990Z,8.50
2017-09-02T11:28:23.552Z,9.83
2017-09-02T11:30:51.079Z,9.90
2017-09-02T11:33:18.642Z,9.93
2017-09-02T11:35:46.184Z,11.90
2017-09-02T11:38:13.760Z,11.33
2017-09-02T11:40:41.308Z,12.20
2017-09-02T11:43:08.931Z,13.27
2017-09-02T11:45:36.465Z,13.53
2017-09-02T11:48:04.014Z,12.60
2017-09-02T11:50:31.580Z,12.57
2017-09-02T11:52:59.776Z,13.13
2017-09-02T11:55:27.362Z,12.10
2017-09-02T11:57:54.936Z,12.47
2017-09-02T12:00:22.483Z,12.47
2017-09-02T12:02:50.017Z,13.17
2017-09-02T12:05:17.573Z,11.93
2017-09-02T12:07:45.119Z,13.87
2017-09-02T12:10:12.679Z,12.47
2017-09-02T12:12:40.222Z,13.53
2017-09-02T12:15:07.818Z,11.70
2017-09-02T12:17:35.372Z,12.10
2017-09-02T12:20:02.909Z,13.33
2017-09-02T12:22:30.467Z,13.73
2017-09-02T12:24:58.005Z,14.50
2017-09-02T12:27:25.568Z,14.27
2017-09-02T12:29:53.089Z,12.97
2017-09-02T12:32:20.637Z,14.57
2017-09-02T12:34:48.157Z,13.53
2017-09-02T12:37:15.714Z,14.70
2017-09-02T12:39:43.253Z,13.80
2017-09-02T12:42:10.823Z,15.07
2017-09-02T12:44:38.385Z,12.70
2017-09-02T12:47:05.948Z,14.90
2017-09-02T12:49:33.463Z,14.37
2017-09-02T12:52:02.117Z,14.83
2017-09-02T12:54:30.769Z,14.70
2017-09-02T12:56:58.308Z,12.90
2017-09-02T12:59:25.898Z,12.47
2017-09-02T13:01:53.428Z,13.33
2017-09-02T13:04:20.986Z,13.20
2017-09-02T13:06:48.536Z,13.13
2017-09-02T13:09:16.093Z,13.57
2017-09-02T13:11:43.635Z,13.40
2017-09-02T13:14:11.174Z,14.47
2017-09-02T13:16:38.705Z,14.43
2017-09-02T13:19:06.255Z,13.37
2017-09-02T13:21:34.236Z,12.87
2017-09-02T13:24:01.784Z,12.87
2017-09-02T13:26:29.896Z,12.20
2017-09-02T13:28:57.434Z,12.07
2017-09-02T13:31:24.984Z,11.70
2017-09-02T13:33:52.524Z,11.20
2017-09-02T13:36:20.103Z,9.90
2017-09-02T13:38:47.644Z,9.80
2017-09-02T13:41:15.273Z,9.27
2017-09-02T13:43:42.828Z,10.67
2017-09-02T13:46:10.356Z,4.43
2017-09-02T13:48:37.918Z,4.20
2017-09-02T13:51:05.441Z,4.40
2017-09-02T13:53:32.998Z,4.10
2017-09-02T13:56:02.281Z,3.50
2017-09-02T13:58:30.389Z,3.70
2017-09-02T14:00:57.969Z,3.90
2017-09-02T14:03:25.528Z,3.40
2017-09-02T14:05:53.070Z,3.93
2017-09-02T14:08:20.644Z,5.23
2017-09-02T14:10:48.173Z,4.73
2017-09-02T14:13:15.709Z,3.37
2017-09-02T14:15:43.270Z,3.80
2017-09-02T14:18:10.799Z,7.83
2017-09-02T14:20:38.350Z,7.03
2017-09-02T14:23:05.889Z,4.37
2017-09-02T14:25:33.837Z,4.53
2017-09-02T14:28:02.717Z,3.57
2017-09-02T14:30:30.830Z,4.10
2017-09-02T14:32:58.608Z,2.73
2017-09-02T14:35:26.160Z,5.00
2017-09-02T14:37:53.848Z,5.20
2017-09-02T14:40:21.423Z,3.93
2017-09-02T14:42:49.083Z,4.77
2017-09-02T14:45:16.606Z,5.17
2017-09-02T14:47:44.144Z,5.30
2017-09-02T14:50:11.677Z,6.40
2017-09-02T14:52:39.216Z,6.37
2017-09-02T14:55:06.764Z,6.90
2017-09-02T14:57:34.302Z,7.57
2017-09-02T15:00:01.965Z,7.07
2017-09-02T15:02:29.924Z,7.10
2017-09-02T15:04:57.454Z,6.73
2017-09-02T15:07:24.981Z,8.37
2017-09-02T15:09:52.532Z,7.90
2017-09-02T15:12:20.088Z,7.60
2017-09-02T15:14:47.656Z,8.37
2017-09-02T15:17:15.180Z,8.80
2017-09-02T15:19:42.712Z,7.40
2017-09-02T15:22:10.262Z,7.40
2017-09-02T15:24:37.816Z,7.77
2017-09-02T15:27:05.356Z,8.93
2017-09-02T15:29:33.369Z,11.20
2017-09-02T15:32:01.756Z,10.73
2017-09-02T15:34:29.963Z,10.03
2017-09-02T15:36:57.529Z,10.93
2017-09-02T15:39:25.061Z,11.87
2017-09-02T15:41:52.615Z,9.30
2017-09-02T15:44:20.128Z,9.30
2017-09-02T15:46:47.708Z,7.83
2017-09-02T15:49:15.223Z,8.40
2017-09-02T15:51:43.312Z,6.70
2017-09-02T15:54:11.013Z,5.40
2017-09-02T15:56:38.681Z,4.40
2017-09-02T15:59:06.215Z,4.13
2017-09-02T16:01:33.754Z,4.17
2017-09-02T16:04:02.535Z,3.40
2017-09-02T16:06:30.924Z,4.53
2017-09-02T16:08:58.484Z,3.80
2017-09-02T16:11:26.077Z,3.03
2017-09-02T16:13:53.636Z,3.73
2017-09-02T16:16:21.242Z,2.80
2017-09-02T16:18:48.793Z,5.30
2017-09-02T16:21:16.358Z,6.20
2017-09-02T16:23:43.977Z,7.00
2017-09-02T16:26:11.591Z,5.67
2017-09-02T16:28:39.132Z,4.30
2017-09-02T16:31:06.689Z,5.03
2017-09-02T16:33:34.222Z,3.93
2017-09-02T16:36:01.790Z,3.87
2017-09-02T16:38:29.961Z,9.33
2017-09-02T16:40:57.513Z,4.97
2017-09-02T16:43:25.056Z,4.60
2017-09-02T16:45:52.607Z,5.80
2017-09-02T16:48:20.140Z,5.77
2017-09-02T16:50:47.727Z,5.10
2017-09-02T16:53:15.269Z,6.37
2017-09-02T16:55:42.798Z,8.77
2017-09-02T16:58:10.353Z,6.67
2017-09-02T17:00:38.003Z,6.17
2017-09-02T17:03:05.552Z,7.30
2017-09-02T17:08:36.016Z,5.43
2017-09-02T17:11:03.558Z,6.33
2017-09-02T17:13:31.178Z,11.43
2017-09-02T17:16:18.437Z,4.50
2017-09-02T17:18:45.992Z,4.07
2017-09-02T17:21:13.504Z,4.00
2017-09-02T17:23:41.060Z,3.90
2017-09-02T17:29:11.431Z,3.03
2017-09-02T17:31:38.962Z,4.50
2017-09-02T17:34:06.529Z,4.50
2017-09-02T17:36:34.065Z,4.97
2017-09-02T17:39:01.574Z,5.07
2017-09-02T17:41:30.161Z,5.77
2017-09-02T17:43:57.715Z,4.37
2017-09-02T17:46:25.316Z,5.17
2017-09-02T17:48:52.873Z,6.13
2017-09-02T17:51:21.455Z,5.77
2017-09-02T17:53:49.016Z,6.03
2017-09-02T17:56:16.574Z,6.10
2017-09-02T17:58:44.140Z,6.97
2017-09-02T18:01:11.860Z,7.23
2017-09-02T18:03:39.408Z,4.80
2017-09-02T18:06:06.999Z,5.30
2017-09-02T18:08:34.566Z,4.93
2017-09-02T18:11:02.104Z,5.93
2017-09-02T18:13:29.637Z,5.60
2017-09-02T18:15:57.225Z,5.37
2017-09-02T18:18:24.759Z,6.20
2017-09-02T18:20:52.299Z,6.70
2017-09-02T18:23:20.577Z,6.83
2017-09-02T18:25:48.112Z,7.00
2017-09-02T18:31:18.445Z,6.40
2017-09-02T18:33:46.005Z,6.23
2017-09-02T18:36:13.532Z,7.17
2017-09-02T18:38:41.150Z,6.50
2017-09-02T18:41:08.688Z,7.90
2017-09-02T18:43:36.399Z,6.57
2017-09-02T18:46:03.922Z,5.93
2017-09-02T18:48:31.679Z,5.83
2017-09-02T18:50:59.246Z,7.00
2017-09-02T18:53:26.868Z,7.10
2017-09-02T18:55:54.489Z,6.83
2017-09-02T18:58:22.077Z,6.33
2017-09-02T19:00:49.898Z,6.53
2017-09-02T19:03:17.536Z,6.57
2017-09-02T19:05:45.168Z,7.00
2017-09-02T19:08:12.760Z,6.87
2017-09-02T19:10:40.390Z,6.40
2017-09-02T19:13:07.981Z,6.83
2017-09-02T19:15:35.602Z,7.00
2017-09-02T19:18:03.223Z,7.60
2017-09-02T19:20:30.866Z,10.20
2017-09-02T19:22:58.448Z,6.90
2017-09-02T19:25:26.051Z,7.72
2017-09-02T19:27:53.600Z,7.60
2017-09-02T19:30:21.314Z,6.82
2017-09-02T19:32:48.991Z,7.30
2017-09-02T19:35:17.000Z,7.77
2017-09-02T19:37:44.586Z,8.73
2017-09-02T19:40:12.125Z,7.20
2017-09-02T19:42:39.735Z,7.60
2017-09-02T19:45:07.312Z,7.87
2017-09-02T19:47:34.927Z,7.77
2017-09-02T19:50:02.531Z,8.10
2017-09-02T19:52:30.150Z,8.23
2017-09-02T19:54:57.849Z,9.45
2017-09-02T19:57:25.399Z,8.17
2017-09-02T19:59:53.183Z,8.48
2017-09-02T20:02:20.745Z,8.15
2017-09-02T20:04:49.637Z,7.70
2017-09-02T20:07:18.383Z,7.90
2017-09-02T20:09:46.173Z,8.30
2017-09-02T20:12:14.455Z,8.95
2017-09-02T20:14:42.154Z,9.37
2017-09-02T20:17:09.756Z,9.40
2017-09-02T20:19:37.396Z,10.40
2017-09-02T20:22:04.978Z,10.83
2017-09-02T20:24:32.727Z,12.57
2017-09-02T20:27:00.260Z,12.10
2017-09-02T20:29:27.941Z,11.80
2017-09-02T20:31:55.569Z,12.05
2017-09-02T20:34:23.276Z,14.75
2017-09-02T20:36:50.828Z,16.70
2017-09-02T20:39:19.513Z,18.67
2017-09-02T20:41:48.541Z,22.80
2017-09-02T20:44:16.070Z,46.50
2017-09-02T20:46:43.632Z,40.20
2017-09-02T20:49:11.159Z,19.17
2017-09-02T20:51:39.809Z,14.37
2017-09-02T20:54:07.331Z,13.18
2017-09-02T20:56:34.995Z,11.75
2017-09-02T20:59:02.604Z,12.25
2017-09-02T21:01:30.293Z,11.48
2017-09-02T21:03:57.846Z,10.95
2017-09-02T21:06:25.552Z,11.97
2017-09-02T21:08:53.103Z,11.80
2017-09-02T21:11:20.643Z,11.38
2017-09-02T21:13:49.672Z,11.80
2017-09-02T21:16:18.042Z,10.15
2017-09-02T21:18:45.624Z,11.63
2017-09-02T21:21:13.152Z,10.38
2017-09-02T21:23:40.708Z,10.40
2017-09-02T21:26:08.293Z,10.63
2017-09-02T21:28:35.955Z,10.18
2017-09-02T21:31:03.576Z,10.00
2017-09-02T21:33:31.103Z,9.15
2017-09-02T21:35:58.656Z,11.12
2017-09-02T21:38:26.182Z,14.50
2017-09-02T21:40:53.766Z,11.88
2017-09-02T21:43:21.331Z,12.75
2017-09-02T21:45:49.000Z,11.48
2017-09-02T21:48:17.059Z,9.43
2017-09-02T21:50:44.706Z,8.82
2017-09-02T21:53:12.255Z,9.63
2017-09-02T21:55:39.975Z,9.20
2017-09-02T21:58:07.507Z,9.57
2017-09-02T22:00:35.093Z,10.07
2017-09-02T22:03:02.651Z,10.55
2017-09-02T22:05:30.193Z,11.10
2017-09-02T22:07:57.739Z,10.90
2017-09-02T22:10:25.283Z,10.38
2017-09-02T22:12:52.827Z,9.18
2017-09-02T22:15:20.374Z,9.20
2017-09-02T22:17:49.099Z,10.73
2017-09-02T22:20:17.045Z,12.18
2017-09-02T22:22:44.585Z,11.07
2017-09-02T22:25:12.183Z,10.40
2017-09-02T22:27:39.732Z,10.15
2017-09-02T22:30:07.253Z,9.93
2017-09-02T22:32:34.805Z,10.05
2017-09-02T22:35:02.355Z,10.77
2017-09-02T22:37:29.887Z,11.73
2017-09-02T22:39:57.435Z,11.70
2017-09-02T22:42:24.968Z,10.02
2017-09-02T22:44:52.512Z,10.55
2017-09-02T22:47:20.030Z,10.95
2017-09-02T22:49:47.572Z,10.65
2017-09-02T22:52:15.092Z,10.00
2017-09-02T22:54:42.676Z,10.48
2017-09-02T22:57:10.273Z,9.77
2017-09-02T22:59:37.865Z,11.23
2017-09-02T23:02:05.410Z,11.73
2017-09-02T23:04:32.961Z,11.63
2017-09-02T23:07:00.514Z,10.13
2017-09-02T23:09:28.041Z,9.80
2017-09-02T23:11:55.765Z,9.60
2017-09-02T23:14:23.297Z,8.85
2017-09-02T23:16:50.831Z,10.15
2017-09-02T23:19:19.171Z,9.68
2017-09-02T23:21:47.103Z,9.40
2017-09-02T23:24:14.619Z,9.23
2017-09-02T23:26:42.180Z,10.52
2017-09-02T23:29:09.713Z,10.15
2017-09-02T23:31:37.272Z,8.73
2017-09-02T23:34:04.795Z,9.32
2017-09-02T23:36:32.322Z,8.90
2017-09-02T23:38:59.860Z,9.43
2017-09-02T23:41:27.383Z,9.32
2017-09-02T23:43:54.938Z,8.65
2017-09-02T23:46:22.471Z,8.18
2017-09-02T23:48:50.030Z,9.00
2017-09-02T23:51:17.555Z,10.25
2017-09-02T23:53:45.136Z,9.50
2017-09-02T23:56:12.656Z,11.38
2017-09-02T23:58:40.212Z,10.43
